Ana Sayfa
METAR-TAF:

METAR-TAF

Havaalanları :

Garden City, Kansas, Amerika Birleşik Devletleri

Enlem: 37-55-39N, Boylam: 100-43-28W, yükseklik: 881 m

Güncel hava durumu gözlemi

Rapor saat 05:54 UTC de 24 dakika önce yapıldı.
Rüzgar güneybatıdan 5 kt
Sıcaklık 11°C
Nem 58%
Basınç 1013 hPa
Görüş mesafesi: 12.9 km
Açık gökyüzü

METAR: KGCK 270554Z AUTO 23005KT 8SM CLR 11/03 A2992 RMK AO2 SLP109 T01110028 10267 20094 402830094 52015

Saat: 01:18 (06:18 UTC)

Tahmin

Rapor saat 05:20 UTC de 58 dakika önce yapıldı.
Ayın 27'si saat 06 UTC'den ayın 28'si saat 06 UTC'ye kadar geçerli Tahmin
Rüzgar değişken yönden 6 kt
Görüş mesafesi: 10 km
Açık gökyüzü

TAF: KGCK 270520Z 2706/2806 VRB06KT P6SM SKC

4.000'den fazla havaalanı için hava durumu gözlemleri ve tahminleri (METAR ve TAF raporları).

Kullanılabilir istasyonlar harita üzerinde sarı ve kırmızı noktalarla gösterilir.

İstasyonun adını görmek için fareyi noktanın üzerinde gezdirin.

Sonrasında hava gözlem ve tahminlerini görmek için tıklayın.

Haritayı değiştirmek için: yaklaştırmak için siyah artı işaretli yeşil düğmeye ve uzaklaştırmak için de eksi işaretli düğmeye hızla tıklayın; bitişik haritalar için yeşil okları kullanın.


METAR-TAF: